Latest Weather Observations for Glen Innes Airport

IDN60801

Issued at 12:23 pm EDT Thursday 20 January 2022 (issued every 10 minutes, with the page automatically refreshed every 10 minutes)

About weather observations | Map of weather stations | Latest weather observations for NSW | Other Formats
Station Details ID: 056243 Name: GLEN INNES AIRPORT AWS Lat: -29.68 Lon: 151.69 Height: 1044.3 m
Data from the previous 72 hours. | See also: Recent months at Glen Innes Airport
Date/Time
EDT
Temp
°C
App
Temp
°C
Dew
Point
°C
Rel
Hum
%
Delta-T
°C
Wind Press
QNH
hPa
Press
MSL
hPa
Rain since
9am
mm
Dir  Spd
km/h
Gust
km/h
Spd
kts
Gust
kts
20/12:00pm 21.4 16.0 16.1 72 3.3 ESE 39 57 21 31 1022.9 1017.2 0.0
20/11:32am 19.2 13.0 14.9 76 2.6 ESE 41 59 22 32 1022.9 1017.2 0.0
20/11:30am 18.9 12.2 14.6 76 2.6 ESE 43 59 23 32 1022.8 1017.1 0.0
20/11:00am 18.7 12.3 14.2 75 2.7 ESE 41 61 22 33 1022.9 1017.2 0.0
20/10:30am 17.9 10.5 14.2 79 2.2 ESE 46 61 25 33 1022.5 1016.8 0.0
20/10:00am 17.6 11.9 14.1 80 2.1 ESE 37 50 20 27 1022.4 1016.7 0.0
20/09:39am 18.2 13.2 15.1 82 1.9 ESE 35 54 19 29 1022.4 1016.7 0.0
20/09:30am 17.7 11.7 14.4 81 2.0 ESE 39 54 21 29 1022.4 1016.7 0.0
20/09:07am 17.3 12.2 14.8 85 1.5 SE 35 54 19 29 1022.2 1016.4 0.0
20/09:00am 17.1 11.9 14.4 84 1.6 SE 35 48 19 26 1022.0 1016.3 23.4
20/08:30am 16.5 11.7 14.5 88 1.2 ESE 33 46 18 25 1021.8 1016.1 23.4
20/08:01am 16.3 11.7 14.5 89 1.1 SE 32 44 17 24 1021.5 1015.8 23.4
20/08:00am 16.3 11.6 14.3 88 1.2 SE 32 44 17 24 1021.5 1015.8 23.4
20/07:30am 16.0 11.4 14.5 91 0.9 SE 32 46 17 25 1020.9 1015.2 23.4
20/07:00am 15.9 11.2 14.4 91 0.9 SE 32 46 17 25 1020.7 1015.0 23.4
20/06:30am 15.8 11.2 14.5 92 0.8 ESE 32 43 17 23 1020.7 1015.0 23.4
20/06:00am 15.8 10.9 14.3 91 0.9 ESE 33 46 18 25 1020.3 1014.5 23.4
20/05:52am 15.8 10.9 14.3 91 0.9 ESE 33 52 18 28 1020.0 1014.3 23.4
20/05:30am 15.8 10.6 14.5 92 0.8 ESE 35 48 19 26 1019.8 1014.1 23.4
20/05:29am 15.8 10.6 14.5 92 0.8 ESE 35 48 19 26 1019.9 1014.2 23.4
20/05:00am 15.9 11.3 14.6 92 0.8 ESE 32 46 17 25 1019.4 1013.6 23.4
20/04:43am 15.9 11.1 14.6 92 0.8 ESE 33 46 18 25 1019.2 1013.4 23.4
20/04:30am 15.8 11.0 14.7 93 0.7 ESE 33 48 18 26 1019.2 1013.4 23.4
20/04:12am 15.8 11.3 14.8 94 0.6 ESE 32 48 17 26 1018.8 1013.1 23.4
20/04:00am 15.7 11.1 14.7 94 0.6 ESE 32 43 17 23 1019.1 1013.3 23.4
20/03:30am 15.6 11.5 14.8 95 0.5 ESE 30 39 16 21 1019.3 1013.5 23.4
20/03:15am 15.6 11.5 15.0 96 0.4 ESE 30 41 16 22 1019.3 1013.5 23.4
20/03:00am 15.6 11.1 14.8 95 0.5 ESE 32 44 17 24 1019.4 1013.6 23.4
20/02:45am 15.7 11.0 14.9 95 0.5 ESE 33 43 18 23 1019.6 1013.8 23.4
20/02:30am 15.7 11.2 14.9 95 0.5 ESE 32 44 17 24 1019.7 1014.0 23.4
20/02:13am 15.5 11.3 14.7 95 0.5 ESE 30 39 16 21 1019.9 1014.2 23.4
20/02:00am 15.6 10.8 14.6 94 0.6 ESE 33 41 18 22 1019.9 1014.2 23.4
20/01:30am 16.0 11.4 14.7 92 0.8 ESE 32 44 17 24 1020.0 1014.3 23.4
20/01:00am 15.7 10.9 14.6 93 0.7 ESE 33 46 18 25 1020.3 1014.5 23.4
20/12:30am 15.9 11.2 14.8 93 0.7 ESE 33 46 18 25 1020.4 1014.6 23.4
20/12:00am 15.8 11.2 14.7 93 0.7 ESE 32 43 17 23 1020.6 1014.9 23.4
 
Date/Time
EDT
Temp
°C
App
Temp
°C
Dew
Point
°C
Rel
Hum
%
Delta-T
°C
Wind Press
QNH
hPa
Press
MSL
hPa
Rain since
9am
mm
Dir  Spd
km/h
Gust
km/h
Spd
kts
Gust
kts
19/11:30pm 15.7 11.5 14.7 94 0.6 ESE 30 39 16 21 1020.6 1014.9 23.4
19/11:00pm 15.6 11.0 14.6 94 0.6 ESE 32 43 17 23 1020.0 1014.3 23.4
19/10:30pm 15.4 11.6 14.8 96 0.4 ESE 28 39 15 21 1020.2 1014.4 23.4
19/10:00pm 15.4 11.6 14.6 95 0.5 SE 28 41 15 22 1020.3 1014.5 23.4
19/09:30pm 15.6 11.0 14.6 94 0.6 SE 32 43 17 23 1020.0 1014.3 23.2
19/09:00pm 16.0 10.9 14.7 92 0.8 ESE 35 50 19 27 1019.5 1013.7 22.8
19/08:30pm 16.2 12.5 15.1 93 0.7 SE 28 41 15 22 1019.5 1013.7 22.4
19/08:00pm 16.6 12.6 15.3 92 0.8 SE 30 37 16 20 1019.3 1013.5 21.8
19/07:30pm 17.3 13.7 15.3 88 1.2 ESE 28 39 15 21 1018.7 1012.9 21.0
19/07:00pm 17.5 14.1 15.7 89 1.1 SE 28 41 15 22 1018.3 1012.5 21.0
19/06:30pm 18.4 15.0 15.8 85 1.6 SE 28 35 15 19 1017.8 1012.0 21.0
19/06:00pm 18.3 15.5 16.3 88 1.2 SE 26 37 14 20 1017.7 1011.9 21.0
19/05:37pm 18.4 15.7 16.6 89 1.1 SE 26 39 14 21 1017.7 1011.9 21.0
19/05:30pm 18.3 15.2 16.6 90 1.1 SE 28 43 15 23 1017.7 1011.9 21.0
19/05:11pm 18.8 16.9 17.6 93 0.8 SE 24 33 13 18 1017.6 1011.8 21.0
19/05:00pm 18.9 17.6 18.2 96 0.5 ESE 22 37 12 20 1017.6 1011.8 21.0
19/04:52pm 18.7 17.4 18.2 97 0.3 SE 22 30 12 16 1017.7 1011.9 21.0
19/04:38pm 18.4 16.6 17.9 97 0.3 SE 24 32 13 17 1017.7 1011.9 21.0
19/04:30pm 18.4 16.2 17.8 96 0.4 SE 26 41 14 22 1017.8 1012.0 20.6
19/04:25pm 18.4 15.7 17.6 95 0.5 SE 28 44 15 24 1017.8 1012.0 20.4
19/04:07pm 19.1 18.9 18.4 96 0.5 SSE 17 20 9 11 1017.9 1012.2 19.6
19/04:06pm 19.1 18.9 18.4 96 0.5 SSE 17 20 9 11 1017.9 1012.2 19.6
19/04:00pm 19.3 18.8 18.6 96 0.5 SSE 19 24 10 13 1017.9 1012.2 19.6
19/03:44pm 20.0 20.7 19.7 98 0.2 SSE 15 20 8 11 1017.9 1012.2 19.6
19/03:30pm 19.1 20.6 18.8 98 0.2 S 9 15 5 8 1017.9 1012.2 19.4
19/03:22pm 19.0 20.0 18.7 98 0.2 SW 11 13 6 7 1018.1 1012.3 18.8
19/03:19pm 18.8 19.7 18.3 97 0.3 SW 11 13 6 7 1018.1 1012.3 18.8
19/03:02pm 18.5 18.8 18.0 97 0.3 SSW 13 17 7 9 1018.1 1012.3 18.0
19/03:00pm 18.4 18.7 17.9 97 0.3 SSW 13 17 7 9 1018.1 1012.3 17.8
19/02:41pm 18.8 17.8 18.0 95 0.5 WSW 20 32 11 17 1018.1 1012.3 11.6
19/02:37pm 18.9 17.9 17.9 94 0.6 W 20 32 11 17 1017.9 1012.2 10.6
19/02:30pm 19.8 20.0 19.3 97 0.3 NW 17 22 9 12 1017.6 1011.8 9.4
19/02:00pm 20.2 19.3 18.1 88 1.4 WNW 20 24 11 13 1017.8 1012.0 1.6
19/01:30pm 23.1 23.0 15.9 64 4.5 SSW 11 17 6 9 1017.8 1012.0 0.0
19/01:00pm 23.5 24.7 17.3 68 4.0 S 7 13 4 7 1017.8 1012.0 0.0
19/12:30pm 22.5 22.7 17.6 74 3.2 SSE 13 17 7 9 1018.1 1012.3 0.0
19/12:00pm 22.4 23.3 16.7 70 3.6 SW 7 13 4 7 1018.2 1012.4 0.0
19/11:30am 22.1 23.4 17.0 73 3.3 ENE 6 9 3 5 1018.3 1012.5 0.0
19/11:00am 21.4 22.0 17.6 79 2.4 ESE 11 15 6 8 1018.3 1012.5 0.0
19/10:30am 20.8 21.3 18.4 86 1.6 ESE 13 15 7 8 1018.4 1012.6 0.0
19/10:02am 20.3 20.7 18.1 87 1.4 ESE 13 17 7 9 1018.3 1012.5 0.0
19/10:00am 20.3 20.7 18.2 88 1.4 ESE 13 17 7 9 1018.3 1012.5 0.0
19/09:30am 19.9 20.7 18.2 90 1.1 ESE 11 15 6 8 1018.3 1012.5 0.0
19/09:00am 19.4 19.8 18.1 92 0.8 ESE 13 15 7 8 1018.3 1012.5 21.0
19/08:30am 19.2 19.5 18.0 93 0.8 SE 13 15 7 8 1018.2 1012.4 21.0
19/08:12am 19.2 20.1 18.4 95 0.5 ESE 11 15 6 8 1017.9 1012.2 21.0
19/08:00am 19.0 19.9 18.3 96 0.5 SE 11 15 6 8 1017.7 1011.9 21.0
19/07:30am 18.5 19.6 18.0 97 0.3 SE 9 11 5 6 1017.3 1011.5 21.0
19/07:00am 18.2 18.9 17.9 98 0.2 SE 11 13 6 7 1016.6 1010.8 21.0
19/06:30am 18.0 19.0 17.8 99 0.1 SE 9 15 5 8 1016.4 1010.6 21.0
19/06:00am 17.7 18.6 17.5 99 0.1 ESE 9 11 5 6 1016.1 1010.2 21.0
19/05:42am 17.6 18.8 17.4 99 0.1 SE 7 11 4 6 1015.8 1010.0 21.0
19/05:30am 17.5 18.7 17.3 99 0.1 E 7 7 4 4 1015.8 1010.0 21.0
19/05:11am 17.1 18.1 16.9 99 0.1 E 7 9 4 5 1015.4 1009.6 21.0
19/05:00am 17.0 17.6 16.7 98 0.2 E 9 11 5 6 1015.1 1009.2 21.0
19/04:30am 17.1 17.7 16.8 98 0.2 ESE 9 11 5 6 1015.0 1009.1 21.0
19/04:29am 17.1 17.7 16.8 98 0.2 ESE 9 11 5 6 1015.0 1009.1 21.0
19/04:00am 17.2 17.4 16.7 97 0.3 ESE 11 13 6 7 1014.7 1008.9 21.0
19/03:41am 17.6 17.3 17.3 98 0.2 ESE 15 20 8 11 1014.6 1008.8 21.0
19/03:30am 17.3 17.1 16.8 97 0.3 ESE 13 17 7 9 1014.6 1008.8 21.0
19/03:25am 17.3 17.1 16.8 97 0.3 SE 13 15 7 8 1014.6 1008.8 21.0
19/03:00am 17.6 17.6 17.1 97 0.3 ESE 13 17 7 9 1014.7 1008.9 21.0
19/02:30am 17.8 17.5 17.3 97 0.3 ESE 15 20 8 11 1015.0 1009.1 21.0
19/02:00am 18.1 17.5 17.6 97 0.3 E 17 22 9 12 1015.3 1009.4 21.0
19/01:31am 17.6 16.9 17.4 99 0.1 ESE 17 20 9 11 1015.5 1009.7 21.0
19/01:30am 17.6 16.9 17.4 99 0.1 ESE 17 20 9 11 1015.5 1009.7 21.0
19/01:00am 17.0 16.8 16.7 98 0.2 ESE 13 17 7 9 1015.8 1010.0 21.0
19/12:30am 17.3 16.8 17.0 98 0.2 ESE 15 17 8 9 1016.0 1010.1 21.0
19/12:00am 17.3 16.3 16.7 96 0.4 ESE 17 20 9 11 1016.1 1010.2 20.8
 
Date/Time
EDT
Temp
°C
App
Temp
°C
Dew
Point
°C
Rel
Hum
%
Delta-T
°C
Wind Press
QNH
hPa
Press
MSL
hPa
Rain since
9am
mm
Dir  Spd
km/h
Gust
km/h
Spd
kts
Gust
kts
18/11:30pm 17.1 17.6 16.5 96 0.4 ESE 9 11 5 6 1016.3 1010.5 20.8
18/11:00pm 17.2 18.3 16.6 96 0.4 SE 6 7 3 4 1016.3 1010.5 20.8
18/10:30pm 17.3 17.5 16.8 97 0.3 E 11 13 6 7 1016.3 1010.5 20.8
18/10:00pm 17.3 17.9 16.8 97 0.3 SE 9 11 5 6 1016.5 1010.7 20.8
18/09:30pm 17.4 18.6 16.8 96 0.4 NE 6 9 3 5 1016.3 1010.5 20.8
18/09:00pm 17.5 18.1 16.9 96 0.4 ENE 9 11 5 6 1016.1 1010.2 20.8
18/08:30pm 17.8 19.1 17.0 95 0.5 NE 6 7 3 4 1016.2 1010.3 20.8
18/08:00pm 18.0 19.2 16.9 93 0.7 WNW 6 6 3 3 1016.5 1010.7 20.8
18/07:30pm 18.2 18.0 16.7 91 0.9 W 13 17 7 9 1016.5 1010.7 20.6
18/07:00pm 18.7 17.3 16.5 87 1.4 WSW 19 24 10 13 1016.4 1010.6 20.6
18/06:30pm 19.5 18.8 17.3 87 1.4 WSW 17 26 9 14 1016.0 1010.1 20.6
18/06:00pm 19.9 20.7 17.3 85 1.7 SE 9 11 5 6 1015.1 1009.2 20.6
18/05:30pm 19.9 19.7 17.5 86 1.5 SE 15 20 8 11 1014.8 1009.0 20.6
18/05:00pm 20.1 19.1 17.9 87 1.4 ESE 20 32 11 17 1014.5 1008.7 20.6
18/04:30pm 18.4 17.4 17.6 95 0.5 ESE 19 26 10 14 1015.0 1009.1 20.6
18/04:00pm 19.2 20.2 18.7 97 0.3 SE 11 13 6 7 1016.2 1010.3 18.0
18/03:34pm 19.4 21.0 19.1 98 0.2 SSW 9 13 5 7 1016.6 1010.8 16.0
18/03:30pm 19.4 21.0 19.1 98 0.2 S 9 13 5 7 1016.6 1010.8 15.8
18/03:13pm 19.3 21.4 19.0 98 0.2 W 6 7 3 4 1016.3 1010.5 15.0
18/03:00pm 19.1 20.6 18.8 98 0.2 SSW 9 13 5 7 1016.2 1010.3 14.4
18/02:30pm 19.1 20.6 18.8 98 0.2 W 9 13 5 7 1016.5 1010.7 12.8
18/02:21pm 19.0 20.7 18.5 97 0.3 WNW 7 11 4 6 1016.5 1010.7 12.6
18/02:00pm 18.9 20.1 18.2 96 0.5 NNE 9 13 5 7 1016.5 1010.7 11.8
18/01:30pm 19.2 20.7 18.9 98 0.2 SE 9 13 5 7 1016.0 1010.1 11.2
18/01:28pm 19.2 20.6 18.7 97 0.3 SE 9 13 5 7 1016.0 1010.1 11.2
18/01:18pm 19.0 20.4 18.7 98 0.2 ESE 9 13 5 7 1016.4 1010.6 11.0
18/01:06pm 18.7 20.3 18.2 97 0.3 ESE 7 11 4 6 1017.1 1011.3 10.4
18/01:00pm 18.6 20.2 18.3 98 0.2 WNW 7 13 4 7 1017.2 1011.4 10.2
18/12:31pm 19.2 18.0 18.4 95 0.5 NW 22 32 12 17 1017.2 1011.4 1.6
18/12:30pm 19.2 17.9 18.2 94 0.6 NW 22 32 12 17 1017.2 1011.4 1.2
18/12:01pm 22.0 23.1 18.0 78 2.6 WNW 9 24 5 13 1016.8 1011.0 0.0
18/12:00pm 22.2 23.6 17.8 76 2.9 NW 7 24 4 13 1016.8 1011.0 0.0
18/11:46am 24.0 25.8 18.4 71 3.7 N 6 9 3 5 1016.8 1011.0 0.0
18/11:36am 24.2 25.2 17.7 67 4.2 N 9 13 5 7 1016.7 1010.9 0.0
18/11:30am 24.2 25.2 17.7 67 4.2 NNE 9 15 5 8 1017.0 1011.1 0.0
18/11:00am 26.6 28.6 20.0 67 4.5 ESE 9 13 5 7 1016.7 1010.9 0.0
18/10:30am 25.1 26.7 19.2 70 3.9 E 9 15 5 8 1017.3 1011.5 0.0
18/10:10am 24.5 26.0 18.9 71 3.7 ENE 9 13 5 7 1017.4 1011.6 0.0
18/10:00am 23.9 25.4 18.8 73 3.4 E 9 17 5 9 1017.6 1011.8 0.0
18/09:30am 23.2 24.7 18.9 77 2.8 ESE 9 15 5 8 1017.4 1011.6 0.0
18/09:00am 21.1 22.1 18.7 86 1.6 ESE 11 20 6 11 1017.4 1011.6 0.6
18/08:30am 20.4 21.0 18.5 89 1.2 ESE 13 19 7 10 1017.2 1011.4 0.6
18/08:00am 19.8 20.0 18.5 92 0.8 ESE 15 20 8 11 1016.8 1011.0 0.6
18/07:30am 19.3 19.9 18.6 96 0.5 ESE 13 17 7 9 1016.5 1010.7 0.6
18/07:00am 19.0 19.6 18.5 97 0.3 ESE 13 17 7 9 1016.3 1010.5 0.6
18/06:30am 18.6 19.1 18.3 98 0.2 ESE 13 17 7 9 1016.1 1010.2 0.6
18/06:00am 18.4 18.8 18.2 99 0.1 E 13 17 7 9 1015.7 1009.9 0.6
18/05:47am 17.9 18.8 17.6 98 0.2 ESE 9 13 5 7 1015.5 1009.7 0.6
18/05:30am 17.7 18.2 17.4 98 0.2 ESE 11 13 6 7 1015.5 1009.7 0.6
18/05:00am 18.0 18.8 17.4 96 0.4 ESE 9 11 5 6 1015.5 1009.7 0.6
18/04:30am 18.8 19.4 17.8 94 0.6 E 11 13 6 7 1015.5 1009.7 0.6
18/04:00am 19.4 20.7 18.4 94 0.6 E 9 13 5 7 1015.8 1010.0 0.6
18/03:30am 19.4 20.3 18.4 94 0.6 ESE 11 15 6 8 1015.7 1009.9 0.6
18/03:00am 19.3 20.2 18.3 94 0.6 E 11 15 6 8 1016.0 1010.1 0.6
18/02:30am 19.5 20.1 18.5 94 0.6 ESE 13 17 7 9 1016.1 1010.2 0.6
18/02:00am 19.7 20.7 18.7 94 0.7 ESE 11 15 6 8 1016.5 1010.7 0.6
18/01:30am 19.7 20.8 18.9 95 0.5 E 11 15 6 8 1016.6 1010.8 0.6
18/01:00am 19.4 20.1 18.9 97 0.3 ESE 13 20 7 11 1016.6 1010.8 0.6
18/12:30am 19.0 19.6 18.7 98 0.2 ESE 13 15 7 8 1016.8 1011.0 0.6
18/12:00am 18.4 19.5 18.1 98 0.2 SE 9 11 5 6 1017.1 1011.3 0.6
 
Date/Time
EDT
Temp
°C
App
Temp
°C
Dew
Point
°C
Rel
Hum
%
Delta-T
°C
Wind Press
QNH
hPa
Press
MSL
hPa
Rain since
9am
mm
Dir  Spd
km/h
Gust
km/h
Spd
kts
Gust
kts
17/11:46pm 18.3 19.3 17.8 97 0.3 ESE 9 13 5 7 1017.0 1011.1 0.6
17/11:30pm 18.3 19.2 17.5 95 0.5 SE 9 11 5 6 1017.0 1011.1 0.6
17/11:00pm 18.9 19.3 18.2 96 0.5 ESE 13 17 7 9 1017.1 1011.3 0.6
17/10:30pm 18.6 19.2 17.6 94 0.6 ESE 11 15 6 8 1017.3 1011.5 0.6
17/10:00pm 18.5 18.7 16.8 90 1.1 ESE 11 13 6 7 1017.1 1011.3 0.6
17/09:30pm 19.2 19.2 17.2 88 1.3 ESE 13 15 7 8 1016.6 1010.8 0.6
17/09:00pm 19.6 19.6 17.2 86 1.5 ESE 13 15 7 8 1016.3 1010.5 0.6
17/08:30pm 20.5 20.8 17.1 81 2.2 E 11 15 6 8 1016.1 1010.2 0.6
17/08:00pm 21.7 21.2 17.7 78 2.6 E 17 20 9 11 1015.7 1009.9 0.6
17/07:30pm 22.5 22.0 18.7 79 2.5 E 19 26 10 14 1015.5 1009.7 0.6
17/07:00pm 22.9 22.8 19.5 81 2.3 E 19 24 10 13 1014.8 1009.0 0.6
17/06:30pm 22.2 21.4 19.2 83 2.0 ESE 22 30 12 16 1014.4 1008.5 0.6
17/06:00pm 25.8 24.5 18.2 63 5.0 ENE 22 28 12 15 1013.9 1008.0 0.0
17/05:30pm 26.6 25.6 17.9 59 5.7 E 20 26 11 14 1013.6 1007.8 0.0
17/05:00pm 29.3 28.0 14.7 41 9.3 NW 15 22 8 12 1013.5 1007.6 0.0
17/04:30pm 29.9 28.8 14.4 38 9.8 NW 13 19 7 10 1013.4 1007.5 0.0
17/04:00pm 30.4 29.5 13.7 36 10.5 W 11 19 6 10 1013.6 1007.8 0.0
17/03:30pm 29.9 29.9 13.6 36 10.2 WSW 6 11 3 6 1013.7 1007.9 0.0
17/03:00pm 28.3 27.5 11.8 36 10.0 WNW 7 13 4 7 1014.1 1008.2 0.0
17/02:30pm 29.6 29.5 15.0 41 9.3 WNW 9 13 5 7 1014.1 1008.2 0.0
17/02:00pm 29.1 29.1 14.1 40 9.4 NW 7 9 4 5 1014.4 1008.5 0.0
17/01:30pm 29.0 29.3 15.9 45 8.4 WSW 9 15 5 8 1014.8 1009.0 0.0
17/01:00pm 28.0 26.8 11.5 35 9.9 NW 9 15 5 8 1015.2 1009.3 0.0
17/12:30pm 27.9 28.2 15.9 48 7.7 W 9 13 5 7 1015.5 1009.7 0.0

Other formats

Comma delimited format used in spreadsheet applications
http://www.bom.gov.au/fwo/IDN60801/IDN60801.94588.axf

JavaScript Object Notation format (JSON) in row-major order
http://www.bom.gov.au/fwo/IDN60801/IDN60801.94588.json

Data quality

Most of these data are generated automatically and are frequently updated. Quality checks on data are not normally performed. It is possible for incorrect values to appear. Refer to information at About Latest Weather Observations and please check the disclaimer before using these data.